createdAt,value
2018-10-17T00:03:14.093Z,21.37
2018-10-17T00:07:18.351Z,22.27
2018-10-17T00:11:22.558Z,23.75
2018-10-17T00:15:26.868Z,22.67
2018-10-17T00:19:31.096Z,19.33
2018-10-17T00:23:36.288Z,20.40
2018-10-17T00:27:40.410Z,19.00
2018-10-17T00:31:45.379Z,20.23
2018-10-17T00:35:49.438Z,19.63
2018-10-17T00:39:53.982Z,18.95
2018-10-17T00:43:58.462Z,21.57
2018-10-17T00:48:02.699Z,19.63
2018-10-17T00:52:06.787Z,20.65
2018-10-17T00:56:10.900Z,22.93
2018-10-17T01:00:15.077Z,22.07
2018-10-17T01:04:19.100Z,23.80
2018-10-17T01:08:23.574Z,19.93
2018-10-17T01:12:27.621Z,22.00
2018-10-17T01:16:31.701Z,21.97
2018-10-17T01:20:36.227Z,23.23
2018-10-17T01:24:40.220Z,20.47
2018-10-17T01:28:44.696Z,21.70
2018-10-17T01:32:48.804Z,21.27
2018-10-17T01:36:52.951Z,20.75
2018-10-17T01:40:57.071Z,22.03
2018-10-17T01:45:01.123Z,21.25
2018-10-17T01:49:05.471Z,20.10
2018-10-17T01:53:09.567Z,20.90
2018-10-17T01:57:14.009Z,20.93
2018-10-17T02:01:18.064Z,20.57
2018-10-17T02:05:22.199Z,20.47
2018-10-17T02:09:27.063Z,26.33
2018-10-17T02:13:31.449Z,23.07
2018-10-17T02:17:35.653Z,24.30
2018-10-17T02:21:40.008Z,23.27
2018-10-17T02:25:44.259Z,18.77
2018-10-17T02:29:48.265Z,22.10
2018-10-17T02:33:52.455Z,26.87
2018-10-17T02:37:56.799Z,23.40
2018-10-17T02:42:01.101Z,26.87
2018-10-17T02:46:05.461Z,23.12
2018-10-17T02:50:11.514Z,24.53
2018-10-17T02:54:15.583Z,22.90
2018-10-17T02:58:19.762Z,21.90
2018-10-17T03:02:23.956Z,22.17
2018-10-17T03:06:27.989Z,22.40
2018-10-17T03:10:32.291Z,20.87
2018-10-17T03:14:36.290Z,24.85
2018-10-17T03:18:40.392Z,21.43
2018-10-17T03:22:45.491Z,20.45
2018-10-17T03:26:49.557Z,20.60
2018-10-17T03:30:53.729Z,25.10
2018-10-17T03:34:57.724Z,22.40
2018-10-17T03:39:02.020Z,21.75
2018-10-17T03:43:06.123Z,22.17
2018-10-17T03:47:10.491Z,22.58
2018-10-17T03:51:14.940Z,20.03
2018-10-17T03:55:19.054Z,21.87
2018-10-17T03:59:23.073Z,27.13
2018-10-17T04:03:27.034Z,27.50
2018-10-17T04:07:31.093Z,22.37
2018-10-17T04:11:35.455Z,21.80
2018-10-17T04:15:39.495Z,22.07
2018-10-17T04:19:44.087Z,20.83
2018-10-17T04:23:48.108Z,21.93
2018-10-17T04:27:54.407Z,18.27
2018-10-17T04:31:58.626Z,20.80
2018-10-17T04:36:02.775Z,25.27
2018-10-17T04:40:06.735Z,22.30
2018-10-17T04:44:11.732Z,23.53
2018-10-17T04:48:17.245Z,23.10
2018-10-17T04:52:21.302Z,23.90
2018-10-17T04:56:25.698Z,23.00
2018-10-17T05:00:29.806Z,20.40
2018-10-17T05:04:33.944Z,21.40
2018-10-17T05:08:38.776Z,19.07
2018-10-17T05:12:43.485Z,19.83
2018-10-17T05:16:47.522Z,24.27
2018-10-17T05:20:51.549Z,22.75
2018-10-17T05:24:55.681Z,23.87
2018-10-17T05:28:59.986Z,22.75
2018-10-17T05:33:04.098Z,21.90
2018-10-17T05:37:08.148Z,28.65
2018-10-17T05:41:12.304Z,27.13
2018-10-17T05:45:16.392Z,24.02
2018-10-17T05:49:20.447Z,23.37
2018-10-17T05:53:24.741Z,25.35
2018-10-17T05:57:28.833Z,24.40
2018-10-17T06:01:33.115Z,21.70
2018-10-17T06:05:37.220Z,24.57
2018-10-17T06:09:41.193Z,22.75
2018-10-17T06:13:45.338Z,24.73
2018-10-17T06:17:50.934Z,26.00
2018-10-17T06:21:54.872Z,25.90
2018-10-17T06:25:58.927Z,26.07
2018-10-17T06:30:02.915Z,27.57
2018-10-17T06:34:07.179Z,24.07
2018-10-17T06:38:11.045Z,29.10
2018-10-17T06:42:15.377Z,28.30
2018-10-17T06:46:19.549Z,32.77
2018-10-17T06:50:23.561Z,27.42
2018-10-17T06:54:28.050Z,29.10
2018-10-17T06:58:32.001Z,28.40
2018-10-17T07:02:36.017Z,27.90
2018-10-17T07:06:39.988Z,29.07
2018-10-17T07:10:44.390Z,29.33
2018-10-17T07:14:48.402Z,28.07
2018-10-17T07:18:53.434Z,29.57
2018-10-17T07:22:57.494Z,31.63
2018-10-17T07:27:01.796Z,30.87
2018-10-17T07:31:06.027Z,29.57
2018-10-17T07:35:10.714Z,35.40
2018-10-17T07:39:14.890Z,33.03
2018-10-17T07:43:18.881Z,33.20
2018-10-17T07:47:23.408Z,31.30
2018-10-17T07:51:27.613Z,31.43
2018-10-17T07:55:31.802Z,31.97
2018-10-17T07:59:35.917Z,30.30
2018-10-17T08:03:39.917Z,31.23
2018-10-17T08:07:44.118Z,33.10
2018-10-17T08:11:48.546Z,35.17
2018-10-17T08:15:53.972Z,35.77
2018-10-17T08:19:57.989Z,34.67
2018-10-17T08:24:02.635Z,36.37
2018-10-17T08:28:06.678Z,36.00
2018-10-17T08:32:11.064Z,36.97
2018-10-17T08:36:15.475Z,37.77
2018-10-17T08:40:19.323Z,36.70
2018-10-17T08:44:24.149Z,35.17
2018-10-17T08:48:28.106Z,35.17
2018-10-17T08:52:32.222Z,36.90
2018-10-17T08:56:36.323Z,36.57
2018-10-17T09:00:40.348Z,33.65
2018-10-17T09:04:44.459Z,40.07
2018-10-17T09:08:48.509Z,36.28
2018-10-17T09:12:52.509Z,33.57
2018-10-17T09:16:56.689Z,30.13
2018-10-17T09:21:01.762Z,31.00
2018-10-17T09:25:05.428Z,30.00
2018-10-17T09:29:09.640Z,25.73
2018-10-17T09:33:13.788Z,23.77
2018-10-17T09:37:17.801Z,26.05
2018-10-17T09:41:22.052Z,21.67
2018-10-17T09:45:26.169Z,22.85
2018-10-17T09:49:30.145Z,23.03
2018-10-17T09:53:34.480Z,21.17
2018-10-17T09:57:38.612Z,20.63
2018-10-17T10:01:46.695Z,18.30
2018-10-17T10:05:50.722Z,18.20
2018-10-17T10:09:55.050Z,17.73
2018-10-17T10:13:59.219Z,18.00
2018-10-17T10:18:03.266Z,17.60
2018-10-17T10:22:07.422Z,19.37
2018-10-17T10:26:12.006Z,17.62
2018-10-17T10:30:16.602Z,17.43
2018-10-17T10:34:20.843Z,17.30
2018-10-17T10:38:24.885Z,15.73
2018-10-17T10:42:29.360Z,15.97
2018-10-17T10:46:33.306Z,16.17
2018-10-17T10:50:38.495Z,16.83
2018-10-17T10:54:42.476Z,15.57
2018-10-17T10:58:47.275Z,18.73
2018-10-17T11:02:51.225Z,14.93
2018-10-17T11:06:55.216Z,15.13
2018-10-17T11:10:59.309Z,15.87
2018-10-17T11:15:03.831Z,15.37
2018-10-17T11:19:08.867Z,16.53
2018-10-17T11:23:13.521Z,14.63
2018-10-17T11:27:17.634Z,15.60
2018-10-17T11:31:21.666Z,15.93
2018-10-17T11:35:26.242Z,14.80
2018-10-17T11:39:30.301Z,15.70
2018-10-17T11:43:34.456Z,16.53
2018-10-17T11:47:39.465Z,16.17
2018-10-17T11:51:43.526Z,15.17
2018-10-17T11:55:47.626Z,15.20
2018-10-17T11:59:52.033Z,14.78
2018-10-17T12:03:56.432Z,16.67
2018-10-17T12:08:00.220Z,14.73
2018-10-17T12:12:05.518Z,16.12
2018-10-17T12:16:10.067Z,13.45
2018-10-17T12:20:15.025Z,16.63
2018-10-17T12:24:19.001Z,13.90
2018-10-17T12:28:23.374Z,14.97
2018-10-17T12:32:27.320Z,14.47
2018-10-17T12:36:31.428Z,14.78
2018-10-17T12:40:35.743Z,13.70
2018-10-17T12:44:39.537Z,15.43
2018-10-17T12:48:43.711Z,16.10
2018-10-17T12:52:48.216Z,16.93
2018-10-17T12:56:52.181Z,15.45
2018-10-17T13:00:56.567Z,15.60
2018-10-17T13:05:00.528Z,18.40
2018-10-17T13:09:08.778Z,16.00
2018-10-17T13:13:12.823Z,14.23
2018-10-17T13:17:17.321Z,17.20
2018-10-17T13:21:21.540Z,17.17
2018-10-17T13:25:26.362Z,15.63
2018-10-17T13:29:30.415Z,16.00
2018-10-17T13:33:34.469Z,14.58
2018-10-17T13:37:38.498Z,15.00
2018-10-17T13:41:42.655Z,13.70
2018-10-17T13:45:46.708Z,14.18
2018-10-17T13:49:51.730Z,13.58
2018-10-17T13:53:55.715Z,12.40
2018-10-17T13:57:59.787Z,13.53
2018-10-17T14:02:04.833Z,11.85
2018-10-17T14:06:09.021Z,11.63
2018-10-17T14:10:13.626Z,9.25
2018-10-17T14:14:17.776Z,7.83
2018-10-17T14:18:22.120Z,8.60
2018-10-17T14:22:26.064Z,8.80
2018-10-17T14:26:30.095Z,9.65
2018-10-17T14:30:34.234Z,10.68
2018-10-17T14:34:38.275Z,12.55
2018-10-17T14:38:42.327Z,11.37
2018-10-17T14:42:46.301Z,11.23
2018-10-17T14:46:50.709Z,10.53
2018-10-17T14:50:55.494Z,11.23
2018-10-17T14:54:59.717Z,10.57
2018-10-17T14:59:03.781Z,9.20
2018-10-17T15:03:07.785Z,9.83
2018-10-17T15:07:12.045Z,8.20
2018-10-17T15:11:16.387Z,8.00
2018-10-17T15:15:20.560Z,8.13
2018-10-17T15:19:25.270Z,8.58
2018-10-17T15:23:29.320Z,7.67
2018-10-17T15:27:33.305Z,8.00
2018-10-17T15:31:37.368Z,7.33
2018-10-17T15:35:41.637Z,7.37
2018-10-17T15:39:45.820Z,8.25
2018-10-17T15:43:50.605Z,7.57
2018-10-17T15:47:55.334Z,8.07
2018-10-17T15:51:59.500Z,8.50
2018-10-17T15:56:04.124Z,8.57
2018-10-17T16:00:09.950Z,7.73
2018-10-17T16:04:14.816Z,7.33
2018-10-17T16:08:18.891Z,7.95
2018-10-17T16:12:23.072Z,8.60
2018-10-17T16:16:27.062Z,7.75
2018-10-17T16:20:31.138Z,7.15
2018-10-17T16:24:35.860Z,6.95
2018-10-17T16:28:39.934Z,7.60
2018-10-17T16:32:45.027Z,8.55
2018-10-17T16:36:49.040Z,7.37
2018-10-17T16:40:53.090Z,7.62
2018-10-17T16:44:57.404Z,9.13
2018-10-17T16:49:02.606Z,9.57
2018-10-17T16:53:06.695Z,9.03
2018-10-17T16:57:11.255Z,7.80
2018-10-17T17:01:15.560Z,8.77
2018-10-17T17:05:19.537Z,9.30
2018-10-17T17:09:24.744Z,8.67
2018-10-17T17:13:28.753Z,9.70
2018-10-17T17:17:32.975Z,9.00
2018-10-17T17:21:38.029Z,8.08
2018-10-17T17:25:42.688Z,8.07
2018-10-17T17:29:46.919Z,7.00
2018-10-17T17:33:50.778Z,7.37
2018-10-17T17:37:55.448Z,6.50
2018-10-17T17:41:59.448Z,7.10
2018-10-17T17:46:03.734Z,6.25
2018-10-17T17:50:08.316Z,7.07
2018-10-17T17:54:12.309Z,6.85
2018-10-17T17:58:16.946Z,6.12
2018-10-17T18:02:21.112Z,6.00
2018-10-17T18:06:25.315Z,5.77
2018-10-17T18:10:29.241Z,5.08
2018-10-17T18:14:33.267Z,5.05
2018-10-17T18:18:37.367Z,6.10
2018-10-17T18:22:41.773Z,5.50
2018-10-17T18:26:45.971Z,6.03
2018-10-17T18:30:50.292Z,5.97
2018-10-17T18:35:01.331Z,6.45
2018-10-17T18:39:07.213Z,6.57
2018-10-17T18:43:11.277Z,6.30
2018-10-17T18:47:15.392Z,6.00
2018-10-17T18:51:19.465Z,5.60
2018-10-17T18:55:23.436Z,6.83
2018-10-17T18:59:27.531Z,5.53
2018-10-17T19:03:31.668Z,7.35
2018-10-17T19:07:35.733Z,6.47
2018-10-17T19:11:40.610Z,6.77
2018-10-17T19:15:44.631Z,6.37
2018-10-17T19:19:48.766Z,7.03
2018-10-17T19:23:52.803Z,5.90
2018-10-17T19:27:57.024Z,6.30
2018-10-17T19:32:01.149Z,6.30
2018-10-17T19:36:05.808Z,5.90
2018-10-17T19:40:10.409Z,6.57
2018-10-17T19:44:14.489Z,6.70
2018-10-17T19:48:18.501Z,6.37
2018-10-17T19:52:22.604Z,5.80
2018-10-17T19:56:26.662Z,6.63
2018-10-17T20:00:30.884Z,6.87
2018-10-17T20:04:34.902Z,6.83
2018-10-17T20:08:39.210Z,7.53
2018-10-17T20:12:43.195Z,6.70
2018-10-17T20:16:47.251Z,6.77
2018-10-17T20:20:51.261Z,6.30
2018-10-17T20:24:55.470Z,7.63
2018-10-17T20:28:59.586Z,8.68
2018-10-17T20:33:03.638Z,7.20
2018-10-17T20:37:07.605Z,8.45
2018-10-17T20:41:11.980Z,8.00
2018-10-17T20:45:15.976Z,8.47
2018-10-17T20:49:20.333Z,7.83
2018-10-17T20:53:24.599Z,9.20
2018-10-17T20:57:28.742Z,7.90
2018-10-17T21:01:32.665Z,8.60
2018-10-17T21:05:37.147Z,7.77
2018-10-17T21:09:41.096Z,8.53
2018-10-17T21:13:45.324Z,7.07
2018-10-17T21:17:49.565Z,6.80
2018-10-17T21:21:53.712Z,6.37
2018-10-17T21:25:57.771Z,7.97
2018-10-17T21:30:02.831Z,6.97
2018-10-17T21:34:06.788Z,7.75
2018-10-17T21:38:10.910Z,8.13
2018-10-17T21:42:14.993Z,6.72
2018-10-17T21:46:18.974Z,7.03
2018-10-17T21:50:23.012Z,7.37
2018-10-17T21:54:27.079Z,7.63
2018-10-17T21:58:31.127Z,6.97
2018-10-17T22:02:35.194Z,7.53
2018-10-17T22:06:39.291Z,8.03
2018-10-17T22:10:43.970Z,7.60
2018-10-17T22:14:47.883Z,7.30
2018-10-17T22:18:51.951Z,7.33
2018-10-17T22:22:56.002Z,7.60
2018-10-17T22:27:00.242Z,8.68
2018-10-17T22:31:05.419Z,8.53
2018-10-17T22:35:09.434Z,8.30
2018-10-17T22:39:14.883Z,7.20
2018-10-17T22:43:18.878Z,7.42
2018-10-17T22:47:22.868Z,8.07
2018-10-17T22:51:27.029Z,8.00
2018-10-17T22:55:31.020Z,6.50
2018-10-17T22:59:35.024Z,7.57
2018-10-17T23:03:39.676Z,8.08
2018-10-17T23:07:43.696Z,7.83
2018-10-17T23:11:48.336Z,7.77
2018-10-17T23:15:52.400Z,6.70
2018-10-17T23:19:56.612Z,7.13
2018-10-17T23:24:00.604Z,8.00
2018-10-17T23:28:05.305Z,7.27
2018-10-17T23:32:09.798Z,7.73
2018-10-17T23:36:13.886Z,7.08
2018-10-17T23:40:17.974Z,7.67
2018-10-17T23:44:22.005Z,7.53
2018-10-17T23:48:26.069Z,6.47
2018-10-17T23:52:31.518Z,6.00
2018-10-17T23:56:36.424Z,7.53
